createdAt,value
2022-09-22T00:00:09.376Z,62.89
2022-09-22T00:00:54.492Z,67.86
2022-09-22T00:01:39.524Z,64.87
2022-09-22T00:02:24.543Z,67.86
2022-09-22T00:03:09.355Z,62.87
2022-09-22T00:03:54.455Z,68.86
2022-09-22T00:04:40.019Z,66.86
2022-09-22T00:05:24.668Z,68.86
2022-09-22T00:06:09.647Z,65.86
2022-09-22T00:06:54.879Z,67.86
2022-09-22T00:07:39.873Z,65.86
2022-09-22T00:08:25.307Z,64.87
2022-09-22T00:09:09.641Z,66.86
2022-09-22T00:09:55.393Z,65.86
2022-09-22T00:10:39.968Z,63.87
2022-09-22T00:11:25.120Z,61.76
2022-09-22T00:12:09.864Z,58.86
2022-09-22T00:12:55.459Z,69.83
2022-09-22T00:13:40.398Z,80.80
2022-09-22T00:14:25.566Z,79.81
2022-09-22T00:15:10.434Z,69.83
2022-09-22T00:15:55.694Z,65.84
2022-09-22T00:16:40.676Z,78.81
2022-09-22T00:17:25.675Z,70.83
2022-09-22T00:18:10.641Z,79.81
2022-09-22T00:18:55.582Z,68.83
2022-09-22T00:19:40.550Z,69.83
2022-09-22T00:20:26.104Z,68.83
2022-09-22T00:21:10.855Z,64.84
2022-09-22T00:21:55.914Z,65.84
2022-09-22T00:22:40.863Z,63.84
2022-09-22T00:23:25.815Z,62.85
2022-09-22T00:24:10.875Z,61.85
2022-09-22T00:24:55.726Z,62.85
2022-09-22T00:25:41.106Z,69.73
2022-09-22T00:26:26.039Z,64.84
2022-09-22T00:27:11.634Z,62.85
2022-09-22T00:27:55.947Z,64.84
2022-09-22T00:28:41.516Z,63.84
2022-09-22T00:29:26.379Z,66.84
2022-09-22T00:30:11.323Z,64.84
2022-09-22T00:30:56.279Z,65.84
2022-09-22T00:31:42.041Z,69.83
2022-09-22T00:32:26.599Z,68.83
2022-09-22T00:33:11.549Z,61.85
2022-09-22T00:33:56.724Z,62.76
2022-09-22T00:34:41.687Z,60.85
2022-09-22T00:35:26.612Z,60.85
2022-09-22T00:36:11.778Z,70.83
2022-09-22T00:36:56.935Z,70.83
2022-09-22T00:37:41.993Z,60.85
2022-09-22T00:38:27.051Z,60.85
2022-09-22T00:39:12.619Z,63.84
2022-09-22T00:39:57.092Z,61.85
2022-09-22T00:40:42.151Z,60.85
2022-09-22T00:41:27.171Z,59.85
2022-09-22T00:42:12.022Z,59.85
2022-09-22T00:42:57.128Z,60.85
2022-09-22T00:43:42.345Z,59.85
2022-09-22T00:44:27.458Z,57.86
2022-09-22T00:45:12.360Z,62.85
2022-09-22T00:45:57.419Z,57.86
2022-09-22T00:46:42.765Z,59.85
2022-09-22T00:47:27.424Z,57.86
2022-09-22T00:48:12.714Z,59.85
2022-09-22T00:48:57.895Z,58.86
2022-09-22T00:49:42.791Z,56.86
2022-09-22T00:50:27.847Z,60.85
2022-09-22T00:51:12.904Z,65.84
2022-09-22T00:51:57.862Z,60.85
2022-09-22T00:52:42.822Z,60.85
2022-09-22T00:53:28.174Z,59.85
2022-09-22T00:54:13.071Z,57.86
2022-09-22T00:54:58.153Z,54.87
2022-09-22T00:55:43.105Z,54.87
2022-09-22T00:56:28.112Z,56.86
2022-09-22T00:57:13.046Z,60.73
2022-09-22T00:57:58.313Z,60.85
2022-09-22T00:58:43.189Z,61.72
2022-09-22T00:59:28.214Z,61.85
2022-09-22T01:00:13.581Z,60.85
2022-09-22T01:00:58.858Z,61.85
2022-09-22T01:01:43.567Z,61.85
2022-09-22T01:02:28.546Z,55.86
2022-09-22T01:03:13.539Z,69.83
2022-09-22T01:03:59.181Z,68.83
2022-09-22T01:04:43.510Z,70.83
2022-09-22T01:05:29.921Z,69.83
2022-09-22T01:06:14.715Z,64.84
2022-09-22T01:06:58.781Z,62.85
2022-09-22T01:07:45.383Z,62.85
2022-09-22T01:08:30.151Z,62.85
2022-09-22T01:09:15.319Z,62.85
2022-09-22T01:10:00.542Z,58.74
2022-09-22T01:10:44.190Z,57.74
2022-09-22T01:11:30.252Z,70.83
2022-09-22T01:12:15.301Z,75.82
2022-09-22T01:13:00.466Z,94.57
2022-09-22T01:13:44.398Z,71.83
2022-09-22T01:14:30.479Z,68.83
2022-09-22T01:15:14.506Z,61.85
2022-09-22T01:16:00.489Z,59.85
2022-09-22T01:16:46.781Z,60.85
2022-09-22T01:17:34.519Z,59.85
2022-09-22T01:18:14.528Z,64.84
2022-09-22T01:19:02.484Z,72.82
2022-09-22T01:19:46.592Z,66.84
2022-09-22T01:20:30.076Z,71.83
2022-09-22T01:21:14.851Z,88.78
2022-09-22T01:22:01.961Z,84.79
2022-09-22T01:22:46.948Z,87.79
2022-09-22T01:23:30.988Z,93.77
2022-09-22T01:24:16.256Z,82.80
2022-09-22T01:25:00.352Z,99.55
2022-09-22T01:25:46.780Z,85.79
2022-09-22T01:26:31.029Z,80.80
2022-09-22T01:27:16.270Z,79.81
2022-09-22T01:28:04.535Z,79.81
2022-09-22T01:28:46.897Z,113.68
2022-09-22T01:29:31.633Z,77.78
2022-09-22T01:30:16.656Z,82.76
2022-09-22T01:31:01.385Z,77.78
2022-09-22T01:31:45.673Z,85.76
2022-09-22T01:32:32.549Z,122.45
2022-09-22T01:33:17.410Z,77.78
2022-09-22T01:34:01.896Z,109.69
2022-09-22T01:34:47.238Z,128.63
2022-09-22T01:35:32.424Z,121.65
2022-09-22T01:36:17.345Z,104.70
2022-09-22T01:37:02.796Z,81.77
2022-09-22T01:37:47.426Z,89.74
2022-09-22T01:38:32.000Z,80.80
2022-09-22T01:39:17.270Z,79.81
2022-09-22T01:40:02.471Z,80.77
2022-09-22T01:40:49.185Z,82.76
2022-09-22T01:41:32.721Z,80.77
2022-09-22T01:42:17.910Z,81.77
2022-09-22T01:43:03.133Z,78.78
2022-09-22T01:43:47.608Z,78.78
2022-09-22T01:44:33.617Z,75.78
2022-09-22T01:45:17.917Z,76.78
2022-09-22T01:46:03.393Z,83.76
2022-09-22T01:46:47.621Z,78.78
2022-09-22T01:47:33.292Z,75.78
2022-09-22T01:48:18.707Z,79.77
2022-09-22T01:49:03.284Z,79.64
2022-09-22T01:49:48.502Z,78.78
2022-09-22T01:50:32.802Z,80.77
2022-09-22T01:51:19.333Z,77.78
2022-09-22T01:52:03.497Z,86.75
2022-09-22T01:52:48.171Z,86.75
2022-09-22T01:53:33.282Z,167.52
2022-09-22T01:54:17.239Z,191.45
2022-09-22T01:55:03.470Z,140.37
2022-09-22T01:55:48.810Z,132.62
2022-09-22T01:56:32.443Z,174.50
2022-09-22T01:57:18.676Z,237.32
2022-09-22T01:58:03.727Z,208.41
2022-09-22T01:58:48.659Z,225.36
2022-09-22T01:59:33.755Z,236.33
2022-09-22T02:00:19.325Z,233.33
2022-09-22T02:01:02.544Z,208.41
2022-09-22T02:01:48.616Z,218.38
2022-09-22T02:02:33.718Z,233.33
2022-09-22T02:03:18.675Z,236.33
2022-09-22T02:04:02.972Z,221.01
2022-09-22T02:04:49.211Z,209.40
2022-09-22T02:05:34.694Z,248.29
2022-09-22T02:06:19.232Z,208.41
2022-09-22T02:07:03.974Z,208.41
2022-09-22T02:07:49.186Z,213.39
2022-09-22T02:08:34.332Z,246.30
2022-09-22T02:09:19.707Z,233.33
2022-09-22T02:10:04.558Z,229.35
2022-09-22T02:10:49.112Z,234.94
2022-09-22T02:11:34.740Z,202.42
2022-09-22T02:12:19.027Z,232.34
2022-09-22T02:13:04.595Z,223.36
2022-09-22T02:13:49.655Z,214.39
2022-09-22T02:14:34.406Z,215.39
2022-09-22T02:15:19.443Z,199.43
2022-09-22T02:16:04.403Z,172.51
2022-09-22T02:16:49.336Z,140.27
2022-09-22T02:17:35.507Z,125.64
2022-09-22T02:18:19.714Z,114.67
2022-09-22T02:19:12.345Z,95.73
2022-09-22T02:19:50.312Z,87.75
2022-09-22T02:20:35.295Z,88.75
2022-09-22T02:21:18.961Z,85.76
2022-09-22T02:22:04.548Z,87.75
2022-09-22T02:22:50.564Z,86.61
2022-09-22T02:23:35.712Z,87.75
2022-09-22T02:24:20.682Z,87.75
2022-09-22T02:25:04.963Z,117.66
2022-09-22T02:25:49.305Z,90.74
2022-09-22T02:26:36.541Z,117.66
2022-09-22T02:27:20.295Z,113.68
2022-09-22T02:28:05.628Z,85.76
2022-09-22T02:28:51.135Z,84.76
2022-09-22T02:29:35.919Z,81.77
2022-09-22T02:30:19.575Z,79.64
2022-09-22T02:31:19.503Z,80.77
2022-09-22T02:31:51.461Z,79.77
2022-09-22T02:32:35.794Z,79.77
2022-09-22T02:33:21.574Z,81.77
2022-09-22T02:34:05.765Z,82.76
2022-09-22T02:34:51.159Z,91.74
2022-09-22T02:35:36.263Z,123.65
2022-09-22T02:36:20.989Z,87.75
2022-09-22T02:37:04.938Z,81.63
2022-09-22T02:37:51.127Z,85.76
2022-09-22T02:38:36.282Z,92.74
2022-09-22T02:39:20.321Z,82.76
2022-09-22T02:40:06.277Z,81.77
2022-09-22T02:40:50.302Z,88.75
2022-09-22T02:41:36.587Z,85.76
2022-09-22T02:42:21.679Z,82.76
2022-09-22T02:43:06.283Z,78.78
2022-09-22T02:43:51.671Z,85.55
2022-09-22T02:44:35.921Z,80.77
2022-09-22T02:45:21.722Z,80.77
2022-09-22T02:46:07.193Z,75.78
2022-09-22T02:46:50.772Z,83.56
2022-09-22T02:47:35.836Z,82.76
2022-09-22T02:48:21.745Z,83.76
2022-09-22T02:49:06.739Z,83.76
2022-09-22T02:49:51.101Z,81.77
2022-09-22T02:50:36.373Z,81.77
2022-09-22T02:51:20.910Z,83.68
2022-09-22T02:52:06.555Z,84.67
2022-09-22T02:52:52.126Z,82.68
2022-09-22T02:53:37.288Z,82.76
2022-09-22T02:54:22.338Z,150.42
2022-09-22T02:55:06.191Z,98.62
2022-09-22T02:55:51.266Z,77.70
2022-09-22T02:56:37.940Z,80.69
2022-09-22T02:57:21.261Z,79.69
2022-09-22T02:58:06.547Z,79.69
2022-09-22T02:58:54.019Z,76.70
2022-09-22T02:59:36.734Z,73.71
2022-09-22T03:00:21.490Z,73.71
2022-09-22T03:01:06.733Z,78.69
2022-09-22T03:01:51.872Z,83.68
2022-09-22T03:02:37.275Z,80.69
2022-09-22T03:03:21.815Z,81.68
2022-09-22T03:04:06.773Z,76.70
2022-09-22T03:04:52.015Z,75.71
2022-09-22T03:05:36.983Z,76.70
2022-09-22T03:06:22.145Z,75.71
2022-09-22T03:07:06.998Z,77.70
2022-09-22T03:07:51.944Z,77.70
2022-09-22T03:08:37.411Z,74.71
2022-09-22T03:09:22.269Z,75.71
2022-09-22T03:10:07.424Z,72.72
2022-09-22T03:10:52.084Z,74.71
2022-09-22T03:11:37.838Z,71.72
2022-09-22T03:12:22.394Z,67.74
2022-09-22T03:13:17.119Z,67.74
2022-09-22T03:13:52.599Z,187.27
2022-09-22T03:14:37.655Z,187.27
2022-09-22T03:15:26.957Z,181.30
2022-09-22T03:16:07.609Z,176.32
2022-09-22T03:16:52.922Z,173.33
2022-09-22T03:17:37.783Z,171.34
2022-09-22T03:18:22.733Z,169.34
2022-09-22T03:19:07.654Z,165.36
2022-09-22T03:19:52.750Z,160.38
2022-09-22T03:20:37.697Z,160.38
2022-09-22T03:21:23.063Z,158.39
2022-09-22T03:22:08.220Z,154.40
2022-09-22T03:22:52.969Z,152.41
2022-09-22T03:23:38.027Z,147.43
2022-09-22T03:24:23.186Z,150.42
2022-09-22T03:25:08.240Z,143.44
2022-09-22T03:25:53.296Z,128.50
2022-09-22T03:26:38.149Z,74.71
2022-09-22T03:27:23.098Z,77.70
2022-09-22T03:28:08.164Z,108.58
2022-09-22T03:28:53.224Z,83.68
2022-09-22T03:29:38.478Z,78.69
2022-09-22T03:30:23.531Z,74.71
2022-09-22T03:31:08.522Z,103.60
2022-09-22T03:31:53.472Z,136.47
2022-09-22T03:32:38.496Z,139.46
2022-09-22T03:33:24.173Z,113.56
2022-09-22T03:34:08.814Z,141.45
2022-09-22T03:34:53.777Z,145.44
2022-09-22T03:35:38.823Z,148.42
2022-09-22T03:36:23.881Z,147.43
2022-09-22T03:37:08.941Z,143.44
2022-09-22T03:37:54.027Z,144.44
2022-09-22T03:38:38.843Z,134.48
2022-09-22T03:40:09.134Z,140.46
2022-09-22T03:40:53.922Z,137.47
2022-09-22T03:41:39.429Z,134.48
2022-09-22T03:42:24.568Z,130.49
2022-09-22T03:43:10.964Z,134.48
2022-09-22T03:43:54.953Z,129.50
2022-09-22T03:44:39.502Z,123.52
2022-09-22T03:45:24.555Z,127.51
2022-09-22T03:46:09.649Z,117.54
2022-09-22T03:46:54.470Z,122.53
2022-09-22T03:47:39.648Z,117.54
2022-09-22T03:48:24.693Z,73.71
2022-09-22T03:49:09.737Z,73.71
2022-09-22T03:49:54.831Z,71.72
2022-09-22T03:50:40.172Z,72.72
2022-09-22T03:51:25.008Z,74.71
2022-09-22T03:52:09.965Z,73.71
2022-09-22T03:52:54.829Z,75.71
2022-09-22T03:53:40.085Z,75.71
2022-09-22T03:54:25.341Z,74.71
2022-09-22T03:55:10.218Z,73.71
2022-09-22T03:55:55.265Z,71.72
2022-09-22T03:56:40.198Z,73.71
2022-09-22T03:57:25.070Z,73.71
2022-09-22T03:58:10.164Z,73.71
2022-09-22T03:58:55.571Z,74.71
2022-09-22T03:59:40.428Z,78.69
2022-09-22T04:00:25.589Z,79.69
2022-09-22T04:01:10.654Z,109.58
2022-09-22T04:01:58.271Z,104.59
2022-09-22T04:02:40.681Z,108.58
2022-09-22T04:03:25.617Z,111.57
2022-09-22T04:04:10.866Z,80.69
2022-09-22T04:04:55.717Z,107.58
2022-09-22T04:05:40.777Z,100.61
2022-09-22T04:06:26.054Z,104.59
2022-09-22T04:07:10.784Z,106.59
2022-09-22T04:07:56.149Z,111.57
2022-09-22T04:08:41.003Z,98.62
2022-09-22T04:09:26.325Z,101.61
2022-09-22T04:10:11.421Z,106.59
2022-09-22T04:10:56.165Z,76.70
2022-09-22T04:11:41.639Z,73.71
2022-09-22T04:12:26.076Z,81.68
2022-09-22T04:13:11.156Z,75.71
2022-09-22T04:13:56.303Z,79.69
2022-09-22T04:14:41.450Z,78.69
2022-09-22T04:15:26.508Z,85.67
2022-09-22T04:16:11.749Z,76.70
2022-09-22T04:16:56.890Z,76.70
2022-09-22T04:17:41.571Z,74.71
2022-09-22T04:18:27.142Z,75.71
2022-09-22T04:19:11.588Z,76.70
2022-09-22T04:19:56.648Z,77.70
2022-09-22T04:20:41.566Z,73.71
2022-09-22T04:21:26.966Z,142.45
2022-09-22T04:22:11.846Z,120.53
2022-09-22T04:22:56.968Z,87.66
2022-09-22T04:23:41.875Z,171.34
2022-09-22T04:24:26.949Z,160.38
2022-09-22T04:25:11.834Z,109.58
2022-09-22T04:25:57.105Z,100.61
2022-09-22T04:26:51.766Z,114.56
2022-09-22T04:27:27.309Z,80.69
2022-09-22T04:28:12.123Z,76.70
2022-09-22T04:28:57.322Z,78.69
2022-09-22T04:29:42.683Z,79.69
2022-09-22T04:30:27.507Z,109.58
2022-09-22T04:31:12.723Z,121.53
2022-09-22T04:31:57.446Z,95.63
2022-09-22T04:32:42.706Z,101.61
2022-09-22T04:33:27.658Z,157.39
2022-09-22T04:34:12.619Z,80.69
2022-09-22T04:34:57.567Z,101.61
2022-09-22T04:35:42.727Z,98.62
2022-09-22T04:36:27.985Z,85.67
2022-09-22T04:37:12.836Z,82.68
2022-09-22T04:37:58.338Z,77.70
2022-09-22T04:38:42.848Z,76.70
2022-09-22T04:39:28.849Z,75.71
2022-09-22T04:40:13.231Z,76.70
2022-09-22T04:40:58.332Z,81.68
2022-09-22T04:41:43.385Z,75.71
2022-09-22T04:42:28.444Z,77.70
2022-09-22T04:43:13.084Z,83.68
2022-09-22T04:43:58.619Z,78.69
2022-09-22T04:44:43.436Z,79.69
2022-09-22T04:45:28.255Z,76.70
2022-09-22T04:46:13.677Z,79.69
2022-09-22T04:46:58.471Z,75.71
2022-09-22T04:47:43.661Z,77.70
2022-09-22T04:49:13.535Z,86.66
2022-09-22T04:49:58.395Z,81.68
2022-09-22T04:50:47.803Z,81.68
2022-09-22T04:51:28.986Z,81.68
2022-09-22T04:52:13.653Z,81.68
2022-09-22T04:52:58.826Z,94.63
2022-09-22T04:53:44.189Z,81.68
2022-09-22T04:54:28.867Z,82.68
2022-09-22T04:55:14.302Z,81.68
2022-09-22T04:55:59.290Z,79.69
2022-09-22T04:56:43.894Z,111.57
2022-09-22T04:57:29.082Z,111.57
2022-09-22T04:58:14.742Z,102.60
2022-09-22T04:58:59.188Z,102.60
2022-09-22T04:59:44.433Z,104.59
2022-09-22T05:00:29.648Z,100.61
2022-09-22T05:01:14.669Z,104.59
2022-09-22T05:01:59.432Z,103.60
2022-09-22T05:02:44.588Z,101.61
2022-09-22T05:03:29.677Z,102.60
2022-09-22T05:04:14.775Z,130.49
2022-09-22T05:04:59.742Z,120.53
2022-09-22T05:05:44.776Z,126.51
2022-09-22T05:06:30.176Z,111.57
2022-09-22T05:07:15.026Z,81.68
2022-09-22T05:07:59.942Z,78.69
2022-09-22T05:08:45.210Z,82.68
2022-09-22T05:09:30.530Z,82.68
2022-09-22T05:10:15.219Z,81.68
2022-09-22T05:11:00.384Z,84.67
2022-09-22T05:11:45.329Z,81.68
2022-09-22T05:12:31.317Z,78.69
2022-09-22T05:13:17.403Z,196.24
2022-09-22T05:14:00.548Z,104.59
2022-09-22T05:14:50.090Z,203.21
2022-09-22T05:15:30.876Z,89.65
2022-09-22T05:16:20.360Z,169.34
2022-09-22T05:17:02.096Z,169.34
2022-09-22T05:17:47.715Z,178.31
2022-09-22T05:18:31.807Z,173.33
2022-09-22T05:19:17.532Z,186.28
2022-09-22T05:20:02.866Z,111.57
2022-09-22T05:20:46.642Z,113.56
2022-09-22T05:21:35.195Z,155.40
2022-09-22T05:22:16.777Z,123.52
2022-09-22T05:23:03.962Z,145.44
2022-09-22T05:23:46.744Z,117.54
2022-09-22T05:24:33.783Z,344.66
2022-09-22T05:25:18.003Z,332.71
2022-09-22T05:26:04.985Z,355.62
2022-09-22T05:26:48.929Z,282.90
2022-09-22T05:27:32.258Z,282.90
2022-09-22T05:28:19.243Z,163.53
2022-09-22T05:29:02.208Z,145.24
2022-09-22T05:29:47.455Z,145.44
2022-09-22T05:30:32.598Z,162.37
2022-09-22T05:31:18.722Z,178.31
2022-09-22T05:32:01.963Z,130.49
2022-09-22T05:32:47.214Z,130.49
2022-09-22T05:33:32.313Z,50.63
2022-09-22T05:34:16.944Z,215.17
2022-09-22T05:35:02.104Z,107.58
2022-09-22T05:35:46.937Z,96.63
2022-09-22T05:36:32.296Z,103.60
2022-09-22T05:37:21.192Z,125.51
2022-09-22T05:38:04.848Z,118.54
2022-09-22T05:38:49.589Z,185.04
2022-09-22T05:39:33.011Z,185.04
2022-09-22T05:40:17.597Z,206.41
2022-09-22T05:41:06.062Z,164.36
2022-09-22T05:41:51.915Z,172.33
2022-09-22T05:42:36.689Z,178.31
2022-09-22T05:43:19.581Z,178.31
2022-09-22T05:44:03.424Z,199.43
2022-09-22T05:44:48.350Z,199.43
2022-09-22T05:45:37.660Z,199.43
2022-09-22T05:46:22.277Z,199.43
2022-09-22T05:47:10.795Z,199.43
2022-09-22T05:47:53.842Z,199.43
2022-09-22T05:48:39.077Z,199.43
2022-09-22T05:49:21.303Z,199.43
2022-09-22T05:50:05.028Z,199.43
2022-09-22T05:50:53.087Z,199.43
2022-09-22T05:51:37.521Z,199.43
2022-09-22T05:52:18.478Z,199.43
2022-09-22T05:53:03.568Z,199.43
2022-09-22T05:53:48.291Z,39.54
2022-09-22T05:54:33.545Z,39.54
2022-09-22T05:55:18.604Z,39.54
2022-09-22T05:56:03.661Z,39.54
2022-09-22T05:56:51.197Z,39.54
2022-09-22T05:57:33.564Z,56.49
2022-09-22T05:58:18.543Z,63.13
2022-09-22T05:59:03.273Z,60.50
2022-09-22T05:59:48.560Z,70.59
2022-09-22T06:00:33.600Z,72.35
2022-09-22T06:01:18.821Z,78.52
2022-09-22T06:02:13.318Z,65.45
2022-09-22T06:02:49.005Z,57.47
2022-09-22T06:03:34.428Z,65.21
2022-09-22T06:04:18.770Z,108.41
2022-09-22T06:05:04.270Z,119.50
2022-09-22T06:05:48.981Z,143.33
2022-09-22T06:06:34.485Z,125.99
2022-09-22T06:07:19.208Z,125.99
2022-09-22T06:08:04.050Z,125.99
2022-09-22T06:08:49.199Z,63.57
2022-09-22T06:09:34.310Z,63.85
2022-09-22T06:10:19.633Z,63.85
2022-09-22T06:11:05.407Z,63.85
2022-09-22T06:11:49.553Z,63.85
2022-09-22T06:12:34.894Z,63.85
2022-09-22T06:13:19.553Z,63.85
2022-09-22T06:14:07.862Z,63.85
2022-09-22T06:14:49.500Z,63.85
2022-09-22T06:15:35.873Z,164.53
2022-09-22T06:16:21.879Z,164.53
2022-09-22T06:17:05.204Z,241.91
2022-09-22T06:17:52.985Z,250.87
2022-09-22T06:18:36.041Z,178.20
2022-09-22T06:19:20.588Z,174.22
2022-09-22T06:20:06.946Z,167.25
2022-09-22T06:20:50.263Z,234.94
2022-09-22T06:21:38.356Z,234.94
2022-09-22T06:22:22.399Z,234.94
2022-09-22T06:23:08.330Z,234.94
2022-09-22T06:23:52.930Z,234.94
2022-09-22T06:24:38.034Z,234.94
2022-09-22T06:25:23.570Z,234.94
2022-09-22T06:26:07.506Z,234.94
2022-09-22T06:26:54.416Z,234.94
2022-09-22T06:27:39.033Z,234.94
2022-09-22T06:28:24.652Z,234.94
2022-09-22T06:29:09.023Z,234.94
2022-09-22T06:29:51.873Z,234.94
2022-09-22T06:30:41.699Z,234.94
2022-09-22T06:31:24.582Z,234.94
2022-09-22T06:32:06.143Z,234.94
2022-09-22T06:32:52.034Z,234.94
2022-09-22T06:33:38.633Z,234.94
2022-09-22T06:34:22.057Z,234.94
2022-09-22T06:35:07.110Z,234.94
2022-09-22T06:35:52.573Z,234.94
2022-09-22T06:36:37.114Z,234.94
2022-09-22T06:37:22.932Z,234.94
2022-09-22T06:38:06.648Z,56.82
2022-09-22T06:38:51.069Z,61.39
2022-09-22T06:39:36.237Z,81.77
2022-09-22T06:40:21.327Z,46.66
2022-09-22T06:41:06.968Z,175.09
2022-09-22T06:41:51.082Z,122.36
2022-09-22T06:42:36.773Z,122.36
2022-09-22T06:43:21.431Z,121.37
2022-09-22T06:44:06.758Z,121.37
2022-09-22T06:44:52.136Z,121.37
2022-09-22T06:45:36.833Z,121.37
2022-09-22T06:46:21.770Z,121.37
2022-09-22T06:47:06.886Z,121.37
2022-09-22T06:47:52.352Z,121.37
2022-09-22T06:48:36.999Z,121.37
2022-09-22T06:49:21.988Z,121.37
2022-09-22T06:50:07.317Z,121.37
2022-09-22T06:50:51.575Z,153.20
2022-09-22T06:51:36.920Z,153.20
2022-09-22T06:52:22.185Z,153.20
2022-09-22T06:53:07.060Z,153.20
2022-09-22T06:53:52.218Z,153.20
2022-09-22T06:54:37.455Z,153.20
2022-09-22T06:55:22.204Z,153.20
2022-09-22T06:56:07.481Z,153.20
2022-09-22T06:56:52.455Z,153.20
2022-09-22T06:57:37.165Z,153.20
2022-09-22T06:58:22.343Z,153.20
2022-09-22T06:59:10.338Z,153.20
2022-09-22T06:59:52.438Z,153.20
2022-09-22T07:00:37.742Z,153.20
2022-09-22T07:01:22.668Z,153.20
2022-09-22T07:02:07.519Z,153.20
2022-09-22T07:02:52.581Z,153.20
2022-09-22T07:03:37.646Z,153.20
2022-09-22T07:04:22.571Z,153.20
2022-09-22T07:05:08.030Z,153.20
2022-09-22T07:05:53.314Z,153.20
2022-09-22T07:06:38.111Z,153.20
2022-09-22T07:07:23.318Z,153.20
2022-09-22T07:08:09.089Z,153.20
2022-09-22T07:08:52.796Z,153.20
2022-09-22T07:09:39.988Z,153.20
2022-09-22T07:10:23.974Z,153.20
2022-09-22T07:11:08.799Z,153.20
2022-09-22T07:11:53.335Z,153.20
2022-09-22T07:12:39.448Z,153.20
2022-09-22T07:13:24.372Z,153.20
2022-09-22T07:14:09.488Z,153.20
2022-09-22T07:14:53.607Z,153.20
2022-09-22T07:15:39.299Z,153.20
2022-09-22T07:16:23.683Z,153.20
2022-09-22T07:17:09.344Z,153.20
2022-09-22T07:17:55.429Z,153.20
2022-09-22T07:18:39.154Z,153.20
2022-09-22T07:19:24.211Z,153.20
2022-09-22T07:20:08.548Z,153.20
2022-09-22T07:20:54.422Z,153.20
2022-09-22T07:21:39.173Z,153.20
2022-09-22T07:22:23.817Z,153.20
2022-09-22T07:23:08.875Z,153.20
2022-09-22T07:23:53.969Z,153.20
2022-09-22T07:24:39.098Z,153.20
2022-09-22T07:25:24.316Z,153.20
2022-09-22T07:26:09.721Z,153.20
2022-09-22T07:26:54.156Z,153.20
2022-09-22T07:27:39.928Z,153.20
2022-09-22T07:28:23.997Z,142.14
2022-09-22T07:29:09.392Z,142.14
2022-09-22T07:29:54.897Z,142.14
2022-09-22T07:30:40.049Z,142.14
2022-09-22T07:31:28.612Z,142.14
2022-09-22T07:32:10.193Z,142.14
2022-09-22T07:32:54.607Z,142.14
2022-09-22T07:33:40.543Z,142.14
2022-09-22T07:34:24.856Z,142.14
2022-09-22T07:35:10.700Z,142.14
2022-09-22T07:35:55.763Z,142.14
2022-09-22T07:36:39.581Z,142.14
2022-09-22T07:37:24.747Z,142.14
2022-09-22T07:38:10.234Z,142.14
2022-09-22T07:38:54.388Z,128.33
2022-09-22T07:39:40.014Z,128.33
2022-09-22T07:40:25.143Z,128.33
2022-09-22T07:41:10.128Z,128.33
2022-09-22T07:41:55.087Z,128.33
2022-09-22T07:42:40.139Z,128.33
2022-09-22T07:43:25.002Z,128.33
2022-09-22T07:44:10.117Z,128.33
2022-09-22T07:44:55.203Z,128.33
2022-09-22T07:45:40.413Z,128.33
2022-09-22T07:46:24.791Z,128.33
2022-09-22T07:47:10.197Z,128.33
2022-09-22T07:47:54.919Z,116.39
2022-09-22T07:48:40.894Z,116.39
2022-09-22T07:49:25.648Z,116.39
2022-09-22T07:50:10.302Z,116.39
2022-09-22T07:50:55.039Z,66.65
2022-09-22T07:51:40.997Z,63.42
2022-09-22T07:52:25.475Z,63.42
2022-09-22T07:53:11.201Z,63.42
2022-09-22T07:53:55.572Z,63.42
2022-09-22T07:54:41.036Z,63.42
2022-09-22T07:55:26.506Z,63.42
2022-09-22T07:56:13.208Z,63.42
2022-09-22T07:56:56.360Z,63.42
2022-09-22T07:57:41.177Z,63.42
2022-09-22T07:58:26.218Z,63.42
2022-09-22T07:59:11.180Z,63.42
2022-09-22T07:59:56.238Z,63.42
2022-09-22T08:00:41.329Z,63.42
2022-09-22T08:01:26.690Z,63.42
2022-09-22T08:02:11.666Z,63.42
2022-09-22T08:02:56.670Z,63.42
2022-09-22T08:03:41.727Z,63.42
2022-09-22T08:04:27.200Z,63.42
2022-09-22T08:05:11.565Z,63.42
2022-09-22T08:05:56.781Z,63.42
2022-09-22T08:06:42.044Z,63.42
2022-09-22T08:07:26.792Z,63.42
2022-09-22T08:08:11.880Z,63.42
2022-09-22T08:08:57.115Z,63.42
2022-09-22T08:09:42.193Z,63.42
2022-09-22T08:10:27.227Z,63.42
2022-09-22T08:11:12.251Z,63.42
2022-09-22T08:11:57.542Z,63.42
2022-09-22T08:12:42.082Z,63.42
2022-09-22T08:13:27.562Z,63.42
2022-09-22T08:14:12.216Z,63.42
2022-09-22T08:14:57.564Z,63.42
2022-09-22T08:15:42.622Z,63.42
2022-09-22T08:16:27.739Z,63.42
2022-09-22T08:17:12.527Z,63.42
2022-09-22T08:17:57.786Z,63.42
2022-09-22T08:18:42.957Z,63.42
2022-09-22T08:19:27.924Z,63.42
2022-09-22T08:20:12.980Z,63.42
2022-09-22T08:20:58.155Z,63.42
2022-09-22T08:21:48.456Z,63.42
2022-09-22T08:22:28.228Z,63.42
2022-09-22T08:23:13.188Z,63.42
2022-09-22T08:23:58.365Z,63.42
2022-09-22T08:24:43.451Z,63.42
2022-09-22T08:25:28.636Z,63.42
2022-09-22T08:26:13.315Z,63.42
2022-09-22T08:26:58.470Z,63.42
2022-09-22T08:27:43.627Z,63.42
2022-09-22T08:28:28.811Z,63.42
2022-09-22T08:29:14.161Z,63.42
2022-09-22T08:29:58.802Z,63.42
2022-09-22T08:30:43.915Z,63.42
2022-09-22T08:31:28.838Z,63.42
2022-09-22T08:32:13.972Z,63.42
2022-09-22T08:32:59.235Z,63.42
2022-09-22T08:33:44.086Z,63.42
2022-09-22T08:34:30.507Z,63.42
2022-09-22T08:35:14.185Z,63.42
2022-09-22T08:35:59.139Z,63.42
2022-09-22T08:36:44.204Z,63.42
2022-09-22T08:37:29.359Z,63.42
2022-09-22T08:38:14.427Z,63.42
2022-09-22T08:38:59.706Z,63.42
2022-09-22T08:39:44.839Z,63.42
2022-09-22T08:40:29.797Z,63.42
2022-09-22T08:41:14.990Z,63.42
2022-09-22T08:41:59.842Z,63.42
2022-09-22T08:42:45.251Z,63.42
2022-09-22T08:43:29.969Z,63.42
2022-09-22T08:44:14.971Z,63.42
2022-09-22T08:45:00.023Z,63.42
2022-09-22T08:45:45.135Z,63.42
2022-09-22T08:46:30.493Z,63.42
2022-09-22T08:47:15.837Z,63.42
2022-09-22T08:47:59.941Z,125.81
2022-09-22T08:48:44.895Z,147.78
2022-09-22T08:49:31.896Z,147.78
2022-09-22T08:50:16.034Z,147.78
2022-09-22T08:51:00.890Z,147.78
2022-09-22T08:51:45.327Z,147.78
2022-09-22T08:52:30.526Z,147.78
2022-09-22T08:53:15.474Z,147.78
2022-09-22T08:54:03.507Z,147.78
2022-09-22T08:54:46.486Z,147.78
2022-09-22T08:55:31.559Z,147.78
2022-09-22T08:56:15.868Z,147.78
2022-09-22T08:57:01.749Z,147.78
2022-09-22T08:57:47.548Z,147.78
2022-09-22T08:58:31.602Z,147.78
2022-09-22T08:59:17.020Z,147.78
2022-09-22T09:00:01.357Z,147.78
2022-09-22T09:00:46.523Z,147.78
2022-09-22T09:01:33.531Z,147.78
2022-09-22T09:02:17.883Z,147.78
2022-09-22T09:03:03.107Z,147.78
2022-09-22T09:03:48.999Z,147.78
2022-09-22T09:04:33.979Z,147.78
2022-09-22T09:05:16.444Z,147.78
2022-09-22T09:06:00.915Z,147.78
2022-09-22T09:06:46.355Z,147.78
2022-09-22T09:07:31.004Z,147.78
2022-09-22T09:08:16.427Z,147.78
2022-09-22T09:09:04.801Z,147.78
2022-09-22T09:09:46.067Z,147.78
2022-09-22T09:10:32.460Z,147.78
2022-09-22T09:11:18.226Z,147.78
2022-09-22T09:12:02.584Z,147.78
2022-09-22T09:12:47.317Z,147.78
2022-09-22T09:13:31.632Z,147.78
2022-09-22T09:14:16.422Z,147.78
2022-09-22T09:15:01.567Z,147.78
2022-09-22T09:15:47.578Z,147.78
2022-09-22T09:16:34.292Z,147.78
2022-09-22T09:17:18.600Z,147.78
2022-09-22T09:18:02.360Z,147.78
2022-09-22T09:18:47.781Z,147.78
2022-09-22T09:19:31.913Z,147.78
2022-09-22T09:20:17.494Z,147.78
2022-09-22T09:21:02.434Z,147.78
2022-09-22T09:21:47.688Z,147.78
2022-09-22T09:22:33.429Z,147.78
2022-09-22T09:23:17.975Z,147.78
2022-09-22T09:25:32.564Z,147.78
2022-09-22T09:26:19.463Z,147.78
2022-09-22T09:27:03.208Z,147.78
2022-09-22T09:27:47.852Z,147.78
2022-09-22T09:28:33.007Z,147.78
2022-09-22T09:29:17.793Z,147.78
2022-09-22T09:30:02.694Z,147.78
2022-09-22T09:30:47.779Z,147.78
2022-09-22T09:31:32.968Z,147.78
2022-09-22T09:32:20.420Z,147.78
2022-09-22T09:33:03.050Z,147.78
2022-09-22T09:33:48.105Z,147.78